Boutte, Louisiana
Current Conditions -  °F | °C
As of 9:53 AM on Friday 24 Oct 2014 (Local Time) from KMSY Reporting Station
Few Clouds Few Clouds  
Wind Chill: 67°   Ceiling: Unl
Heat Index: 67°   Visibility: 10mi
Dew Point: 54°   Wind: 7mph
Humidity: 63%   Direction: 20°NNE
Pressure: 30.12"   Gusts: NA
Location:  29.9°N, 90.39°W
Report Text: KMSY 241453Z 02006KT 10SM FEW010 FEW180 19/12 A3012 RMK AO2 SLP204 FU FEW010 T01940122 51011
Loading
Personal Weather Stations






























Interactive Weather Map
Tropical Storm Tracking
New forecast layout! Learn more

10-Day Weather Forecast

Advertisements
Track Severe Weather on mobile